ハルビン の空港の天気 - METARとTAF

ハルビン太平国際空港 ( ZYHB / HRB ) - 中国 黒竜江省ハルビン市
飛行場実況気象(Metar)
観測時間08/23 00:00 CST (08/22 16:00 UTC)
風向・風速北北西 3m/s
視程10km以上
天気現象
全天の8割程度の雲 雲底高度 790m
気温17℃
湿度100%
気圧1005hPa
METARZYHB 221600Z 33003MPS 9999 BKN026 17/17 Q1005 NOSIG
過去の天気等 Google飛行場航空写真 Wunderground天気予報

過去48時間のMETAR

飛行場予報(TAF)
発表時間: 8/22 17:02 CST (8/22 09:02 UTC)
予報対象時間: 22日20時 CST ~ 23日20時 CST
風向・風速北 4m/s
視程6000m
少しの雲 雲底高度 300m
全天の4割程度の雲 雲底高度 700m
22日20時 CST ~ 23日2時 CST に一時的に
天気現象弱いしゅう雨
少しの雲 雲底高度 300m
少しの積乱雲 雲底高度 700m
全天の4割程度の雲 雲底高度 790m
TAF ZYHB 220902Z 2212/2312 01004MPS 6000 FEW010 SCT023 TX20/2306Z TN15/2221Z
TEMPO 2212/2218 -SHRA FEW010 FEW023CB SCT026